Time;durP1;ratioP1;P1;durP2;ratioP2;P2;SDS_P1;SDS_P2;PMS_P1;PMS_P2;Temp;Humidity;BMP_temperature;BMP_pressure;BME280_temperature;BME280_humidity;BME280_pressure;Samples;Min_cycle;Max_cycle;Signal;HPM_P1;HPM_P2
2021/05/01 00:00:52;;;;;;;16.90;15.30;;;;;20.40;100235.00;;;;2072319;28;20747;-69
2021/05/01 00:01:52;;;;;;;15.07;13.67;;;;;20.50;100227.00;;;;2072166;28;20850;-70
2021/05/01 00:02:53;;;;;;;13.70;12.60;;;;;20.60;100228.00;;;;2080190;28;20638;-71
2021/05/01 00:03:53;;;;;;;16.40;12.37;;;;;20.60;100226.00;;;;2072303;28;20687;-70
2021/05/01 00:04:53;;;;;;;13.87;12.67;;;;;20.60;100224.00;;;;2071911;28;20211;-70
2021/05/01 00:05:54;;;;;;;14.07;12.83;;;;;20.60;100225.00;;;;2072062;28;20215;-70
2021/05/01 00:06:54;;;;;;;14.87;13.43;;;;;20.50;100223.00;;;;2080221;28;20210;-69
2021/05/01 00:07:54;;;;;;;16.00;14.70;;;;;20.60;100226.00;;;;2080929;28;20225;-70
2021/05/01 00:08:55;;;;;;;14.90;13.57;;;;;20.50;100225.00;;;;2080230;28;20281;-70
2021/05/01 00:09:55;;;;;;;15.00;13.60;;;;;20.50;100231.00;;;;2080104;28;20581;-70
2021/05/01 00:11:03;;;;;;;14.80;13.50;;;;;20.50;100225.00;;;;2080171;28;20219;-70
2021/05/01 00:12:03;;;;;;;14.48;13.20;;;;;20.50;100224.00;;;;2079969;28;20222;-71
2021/05/01 00:13:03;;;;;;;14.80;13.40;;;;;20.50;100225.00;;;;2079943;28;20218;-71
2021/05/01 00:14:05;;;;;;;13.20;12.10;;;;;20.60;100222.00;;;;2080899;28;20214;-71
2021/05/01 00:15:07;;;;;;;14.25;13.05;;;;;20.50;100219.00;;;;2080850;28;20762;-71
2021/05/01 00:16:07;;;;;;;13.25;12.20;;;;;20.50;100220.00;;;;2080350;28;20210;-71
2021/05/01 00:17:07;;;;;;;14.27;13.07;;;;;20.50;100227.00;;;;2072173;28;20246;-71
2021/05/01 00:18:08;;;;;;;15.13;13.83;;;;;20.50;100217.00;;;;2071289;28;20819;-70
2021/05/01 00:19:09;;;;;;;14.73;13.33;;;;;20.50;100224.00;;;;2080113;28;20724;-69
2021/05/01 00:20:09;;;;;;;14.50;13.30;;;;;20.50;100220.00;;;;2081061;28;20688;-69
2021/05/01 00:21:10;;;;;;;15.23;13.93;;;;;20.50;100216.00;;;;2080986;28;20461;-70
2021/05/01 00:22:10;;;;;;;15.50;14.10;;;;;20.50;100223.00;;;;2080728;28;20214;-70
2021/05/01 00:23:10;;;;;;;14.97;13.53;;;;;20.60;100225.00;;;;2080887;28;20256;-69
2021/05/01 00:24:11;;;;;;;14.67;13.37;;;;;20.60;100230.00;;;;2080103;28;20241;-69
2021/05/01 00:25:11;;;;;;;15.30;14.00;;;;;20.60;100230.00;;;;2071853;28;20219;-69
2021/05/01 00:26:12;;;;;;;16.23;14.83;;;;;20.60;100227.00;;;;2072079;28;20237;-69
2021/05/01 00:27:12;;;;;;;15.30;14.00;;;;;20.60;100227.00;;;;2071768;28;20207;-70
2021/05/01 00:28:13;;;;;;;15.73;14.33;;;;;20.60;100231.00;;;;2080110;28;20229;-69
2021/05/01 00:29:13;;;;;;;16.90;15.37;;;;;20.60;100232.00;;;;2080283;28;20213;-69
2021/05/01 00:30:13;;;;;;;16.70;15.30;;;;;20.60;100224.00;;;;2080039;28;20249;-70
2021/05/01 00:31:14;;;;;;;15.43;14.03;;;;;20.60;100234.00;;;;2080814;28;20214;-69
2021/05/01 00:32:15;;;;;;;15.20;13.87;;;;;20.50;100233.00;;;;2075847;28;20293;-69
2021/05/01 00:33:15;;;;;;;15.90;14.60;;;;;20.50;100233.00;;;;2071905;28;20458;-69
2021/05/01 00:34:15;;;;;;;16.20;14.83;;;;;20.50;100235.00;;;;2080087;28;20209;-70
2021/05/01 00:35:16;;;;;;;16.60;15.20;;;;;20.50;100229.00;;;;2080006;28;20217;-69
2021/05/01 00:36:16;;;;;;;16.73;15.33;;;;;20.50;100231.00;;;;2063441;28;20239;-69
2021/05/01 00:37:16;;;;;;;16.10;14.80;;;;;20.50;100236.00;;;;2063655;28;20214;-69
2021/05/01 00:38:17;;;;;;;15.63;14.33;;;;;20.50;100230.00;;;;2071838;28;20220;-69
2021/05/01 00:39:17;;;;;;;15.93;14.33;;;;;20.50;100235.00;;;;2072513;28;20210;-69
2021/05/01 00:40:17;;;;;;;16.07;14.77;;;;;20.50;100229.00;;;;2079139;28;20329;-69
2021/05/01 00:41:18;;;;;;;16.10;14.57;;;;;20.50;100232.00;;;;2080806;28;20214;-69
2021/05/01 00:42:18;;;;;;;15.43;14.03;;;;;20.50;100198.00;;;;2077269;28;20214;-69
2021/05/01 00:43:18;;;;;;;15.97;14.47;;;;;20.50;100231.00;;;;2071772;28;20669;-69
2021/05/01 00:44:19;;;;;;;15.93;14.43;;;;;20.50;100235.00;;;;2079841;28;20656;-69
2021/05/01 00:45:19;;;;;;;16.30;15.00;;;;;20.50;100228.00;;;;2079764;28;20651;-69
2021/05/01 00:46:20;;;;;;;16.43;15.13;;;;;20.50;100231.00;;;;2080135;28;20693;-70
2021/05/01 00:47:21;;;;;;;17.15;15.75;;;;;20.40;100233.00;;;;2080024;28;20704;-68
2021/05/01 00:48:21;;;;;;;17.27;15.70;;;;;20.50;100230.00;;;;2079950;28;20297;-69
2021/05/01 00:49:21;;;;;;;16.63;15.23;;;;;20.40;100227.00;;;;2080699;28;20206;-70
2021/05/01 00:50:22;;;;;;;16.87;15.47;;;;;20.50;100218.00;;;;2080079;28;20249;-69
2021/05/01 00:51:22;;;;;;;17.57;16.07;;;;;20.50;100222.00;;;;2071114;28;20207;-69
2021/05/01 00:52:23;;;;;;;16.17;14.77;;;;;20.50;100219.00;;;;2079774;28;20775;-69
2021/05/01 00:53:23;;;;;;;16.90;15.50;;;;;20.50;100215.00;;;;2079579;28;20700;-69
2021/05/01 00:54:24;;;;;;;17.50;15.83;;;;;20.40;100219.00;;;;2071746;28;20462;-69
2021/05/01 00:55:24;;;;;;;15.17;13.97;;;;;20.40;100221.00;;;;2053417;28;20234;-70
2021/05/01 00:56:24;;;;;;;16.60;15.20;;;;;20.40;100220.00;;;;2055855;28;20204;-69
2021/05/01 00:57:25;;;;;;;16.20;14.80;;;;;20.40;100221.00;;;;2061317;28;20738;-69
2021/05/01 00:58:25;;;;;;;17.10;15.60;;;;;20.40;100211.00;;;;2071720;28;20225;-68
2021/05/01 00:59:26;;;;;;;17.50;16.00;;;;;20.40;100216.00;;;;2071765;28;20209;-69
2021/05/01 01:01:32;;;;;;;17.60;16.00;;;;;20.40;100217.00;;;;2080259;28;20213;-69
2021/05/01 01:02:33;;;;;;;17.93;16.43;;;;;20.40;100217.00;;;;2080543;28;20210;-70
2021/05/01 01:03:34;;;;;;;18.80;17.10;;;;;20.40;100223.00;;;;2080223;28;20263;-69
2021/05/01 01:04:34;;;;;;;17.80;16.30;;;;;20.40;100217.00;;;;2071655;28;20226;-70
2021/05/01 01:05:34;;;;;;;18.20;16.60;;;;;20.40;100217.00;;;;2071482;28;20991;-69
2021/05/01 01:06:35;;;;;;;16.97;15.60;;;;;20.40;100214.00;;;;2079898;28;20740;-69
2021/05/01 01:07:35;;;;;;;17.30;15.80;;;;;20.40;100224.00;;;;2080122;28;20636;-69
2021/05/01 01:08:35;;;;;;;17.27;15.93;;;;;20.40;100220.00;;;;2080382;28;20584;-69
2021/05/01 01:09:36;;;;;;;18.43;16.83;;;;;20.40;100222.00;;;;2079728;28;20651;-69
2021/05/01 01:10:36;;;;;;;18.23;16.57;;;;;20.40;100219.00;;;;2079667;28;20221;-69
2021/05/01 01:11:37;;;;;;;17.67;16.17;;;;;20.40;100217.00;;;;2080325;28;20681;-69
2021/05/01 01:12:37;;;;;;;17.70;16.20;;;;;20.40;100216.00;;;;2080008;28;20314;-70
2021/05/01 01:13:37;;;;;;;18.60;16.90;;;;;20.40;100223.00;;;;2079825;28;20302;-69
2021/05/01 01:14:38;;;;;;;17.60;16.00;;;;;20.40;100220.00;;;;2079735;28;20220;-69
2021/05/01 01:15:38;;;;;;;18.07;16.57;;;;;20.40;100223.00;;;;2079685;28;20229;-69
2021/05/01 01:16:40;;;;;;;17.70;16.30;;;;;20.40;100223.00;;;;2080426;28;20675;-69
2021/05/01 01:17:40;;;;;;;19.27;17.65;;;;;20.40;100218.00;;;;2076519;28;20206;-69
2021/05/01 01:18:40;;;;;;;18.90;17.30;;;;;20.40;100211.00;;;;2079665;28;20285;-69
2021/05/01 01:19:41;;;;;;;18.40;16.90;;;;;20.40;100224.00;;;;2071646;28;20219;-69
2021/05/01 01:20:41;;;;;;;20.03;18.33;;;;;20.40;100224.00;;;;2079843;28;20210;-69
2021/05/01 01:21:48;;;;;;;19.07;17.57;;;;;20.40;100225.00;;;;2080282;28;20209;-69
2021/05/01 01:22:48;;;;;;;19.52;17.92;;;;;20.40;100229.00;;;;2079071;28;20742;-69
2021/05/01 01:23:49;;;;;;;18.10;16.50;;;;;20.30;100223.00;;;;2071493;28;20235;-69
2021/05/01 01:24:49;;;;;;;18.43;16.63;;;;;20.40;100221.00;;;;2079014;28;20233;-69
2021/05/01 01:25:50;;;;;;;19.80;18.10;;;;;20.30;100221.00;;;;2063204;28;20334;-69
2021/05/01 01:26:50;;;;;;;19.87;18.17;;;;;20.30;100221.00;;;;2067724;28;20232;-69
2021/05/01 01:27:50;;;;;;;18.33;16.83;;;;;20.30;100232.00;;;;2079643;28;20214;-70
2021/05/01 01:28:51;;;;;;;18.83;17.23;;;;;20.30;100224.00;;;;2079705;28;20224;-69
2021/05/01 01:29:51;;;;;;;20.40;18.60;;;;;20.20;100220.00;;;;2071563;28;20226;-69
2021/05/01 01:30:51;;;;;;;19.37;17.67;;;;;20.30;100216.00;;;;2063407;28;20218;-69
2021/05/01 01:31:52;;;;;;;20.03;18.33;;;;;20.30;100222.00;;;;2079518;28;20747;-69
2021/05/01 01:32:52;;;;;;;19.63;18.03;;;;;20.30;100223.00;;;;2080190;28;20226;-69
2021/05/01 01:33:52;;;;;;;20.57;18.80;;;;;20.30;100228.00;;;;2070972;28;20245;-69
2021/05/01 01:34:53;;;;;;;20.23;18.53;;;;;20.30;100227.00;;;;2071290;28;20210;-69
2021/05/01 01:35:53;;;;;;;20.70;18.90;;;;;20.30;100229.00;;;;2080033;28;20222;-69
2021/05/01 01:36:53;;;;;;;21.60;19.60;;;;;20.30;100227.00;;;;2079477;28;20210;-69
2021/05/01 01:37:54;;;;;;;21.47;19.60;;;;;20.30;100225.00;;;;2063105;28;20262;-69
2021/05/01 01:38:54;;;;;;;20.00;18.40;;;;;20.30;100228.00;;;;2063412;28;20583;-69
2021/05/01 01:39:54;;;;;;;20.27;18.50;;;;;20.30;100235.00;;;;2068590;28;20222;-69
2021/05/01 01:40:55;;;;;;;20.80;19.00;;;;;20.30;100231.00;;;;2078615;28;20305;-69
2021/05/01 01:41:55;;;;;;;20.10;18.30;;;;;20.30;100232.00;;;;2079274;28;20229;-69
2021/05/01 01:42:56;;;;;;;20.60;18.90;;;;;20.30;100229.00;;;;2079332;28;20214;-69
2021/05/01 01:43:56;;;;;;;19.60;18.00;;;;;20.30;100228.00;;;;2079658;28;20229;-69
2021/05/01 01:44:56;;;;;;;20.70;18.80;;;;;20.30;100234.00;;;;2070859;28;20645;-69
2021/05/01 01:46:00;;;;;;;21.03;19.23;;;;;20.30;100232.00;;;;2071187;28;20613;-69
2021/05/01 01:47:00;;;;;;;19.90;18.30;;;;;20.30;100237.00;;;;2071641;28;20218;-69
2021/05/01 01:48:01;;;;;;;20.10;18.30;;;;;20.30;100238.00;;;;2079066;28;20249;-69
2021/05/01 01:49:01;;;;;;;21.37;19.57;;;;;20.30;100237.00;;;;2079116;28;20222;-69
2021/05/01 01:50:03;;;;;;;20.40;18.70;;;;;20.30;100232.00;;;;2079580;28;20217;-69
2021/05/01 01:51:03;;;;;;;21.35;19.55;;;;;20.30;100239.00;;;;2071422;28;20226;-69
2021/05/01 01:52:04;;;;;;;20.00;18.40;;;;;20.30;100234.00;;;;2071063;28;20211;-69
2021/05/01 01:53:04;;;;;;;20.50;18.90;;;;;20.30;100244.00;;;;2071171;28;20207;-69
2021/05/01 01:54:05;;;;;;;19.97;18.27;;;;;20.30;100226.00;;;;2071073;28;20211;-69
2021/05/01 01:55:06;;;;;;;19.67;18.03;;;;;20.30;100225.00;;;;2079248;28;20315;-69
2021/05/01 01:56:07;;;;;;;20.80;18.98;;;;;20.30;100223.00;;;;2080176;28;20712;-69
2021/05/01 01:57:08;;;;;;;20.77;19.08;;;;;20.30;100221.00;;;;2074560;28;20711;-69
2021/05/01 01:58:08;;;;;;;20.90;19.20;;;;;20.30;100214.00;;;;2076201;28;20214;-69
2021/05/01 01:59:08;;;;;;;19.77;18.10;;;;;20.30;100225.00;;;;2066775;28;20268;-69
2021/05/01 02:00:14;;;;;;;19.77;18.17;;;;;20.30;100222.00;;;;2079187;28;20226;-69
2021/05/01 02:01:14;;;;;;;21.20;19.40;;;;;20.30;100226.00;;;;2079495;28;20229;-69
2021/05/01 02:02:15;;;;;;;20.37;18.60;;;;;20.20;100216.00;;;;2071305;28;20681;-69
2021/05/01 02:03:17;;;;;;;19.50;17.90;;;;;20.20;100221.00;;;;2071020;28;20223;-69
2021/05/01 02:04:17;;;;;;;20.45;18.65;;;;;20.20;100219.00;;;;2079426;28;20612;-69
2021/05/01 02:05:18;;;;;;;22.20;20.10;;;;;20.20;100225.00;;;;2079232;28;20218;-71
2021/05/01 02:06:18;;;;;;;20.03;18.33;;;;;20.20;100221.00;;;;2079285;28;20233;-69
2021/05/01 02:07:18;;;;;;;20.20;18.50;;;;;20.20;100223.00;;;;2079264;28;20279;-70
2021/05/01 02:08:19;;;;;;;20.60;18.80;;;;;20.20;100227.00;;;;2079346;28;20601;-68
2021/05/01 02:09:19;;;;;;;20.63;18.93;;;;;20.20;100224.00;;;;2073434;28;20221;-67
2021/05/01 02:10:20;;;;;;;20.57;18.70;;;;;20.20;100226.00;;;;2079351;28;20583;-67
2021/05/01 02:11:20;;;;;;;21.40;19.60;;;;;20.20;100228.00;;;;2080049;28;20560;-68
2021/05/01 02:12:21;;;;;;;21.27;19.47;;;;;20.20;100223.00;;;;2080093;28;20248;-67
2021/05/01 02:13:21;;;;;;;22.10;20.30;;;;;20.20;100223.00;;;;2079837;28;20228;-67
2021/05/01 02:14:21;;;;;;;20.27;18.60;;;;;20.20;100220.00;;;;2079308;28;20225;-67
2021/05/01 02:15:22;;;;;;;20.43;18.73;;;;;20.20;100219.00;;;;2079237;28;20256;-68
2021/05/01 02:16:22;;;;;;;20.53;18.80;;;;;20.20;100218.00;;;;2079992;28;20225;-67
2021/05/01 02:17:23;;;;;;;20.17;18.47;;;;;20.20;100222.00;;;;2071224;28;20231;-68
2021/05/01 02:18:23;;;;;;;20.87;19.07;;;;;20.20;100226.00;;;;2071084;28;20214;-67
2021/05/01 02:19:24;;;;;;;20.97;19.20;;;;;20.20;100219.00;;;;2079874;28;20214;-68
2021/05/01 02:20:34;;;;;;;21.80;19.90;;;;;20.20;100217.00;;;;2080103;28;20214;-67
2021/05/01 02:21:35;;;;;;;21.88;20.13;;;;;20.20;100222.00;;;;2068399;28;20654;-67
2021/05/01 02:22:35;;;;;;;21.03;19.23;;;;;20.20;100213.00;;;;2072340;28;20207;-67
2021/05/01 02:23:35;;;;;;;21.60;19.70;;;;;20.20;100223.00;;;;2079182;28;20237;-67
2021/05/01 02:24:36;;;;;;;22.43;20.33;;;;;20.20;100221.00;;;;2079090;28;20202;-67
2021/05/01 02:25:37;;;;;;;21.00;19.20;;;;;20.20;100218.00;;;;2079895;28;20247;-68
2021/05/01 02:26:38;;;;;;;20.42;18.67;;;;;20.20;100219.00;;;;2079210;28;20220;-67
2021/05/01 02:27:39;;;;;;;20.45;18.67;;;;;20.20;100221.00;;;;2071324;28;20198;-67
2021/05/01 02:28:40;;;;;;;22.03;20.10;;;;;20.20;100221.00;;;;2079336;28;20266;-67
2021/05/01 02:29:40;;;;;;;21.30;19.43;;;;;20.20;100217.00;;;;2071150;28;20210;-68
2021/05/01 02:30:40;;;;;;;22.63;20.63;;;;;20.20;100223.00;;;;2071197;28;20218;-68
2021/05/01 02:31:41;;;;;;;22.17;20.27;;;;;20.20;100219.00;;;;2071045;28;20222;-67
2021/05/01 02:32:41;;;;;;;22.83;20.87;;;;;20.20;100220.00;;;;2071230;28;20803;-67
2021/05/01 02:33:41;;;;;;;21.53;19.73;;;;;20.20;100211.00;;;;2071144;28;20241;-68
2021/05/01 02:34:42;;;;;;;22.33;20.43;;;;;20.20;100218.00;;;;2071391;28;20210;-67
2021/05/01 02:35:42;;;;;;;20.90;19.10;;;;;20.20;100220.00;;;;2070327;28;20214;-67
2021/05/01 02:36:43;;;;;;;23.77;21.67;;;;;20.20;100221.00;;;;2071148;28;20222;-68
2021/05/01 02:37:43;;;;;;;22.17;20.13;;;;;20.20;100220.00;;;;2063087;28;20650;-67
2021/05/01 02:38:43;;;;;;;21.83;19.93;;;;;20.20;100215.00;;;;2071007;28;20218;-68
2021/05/01 02:39:44;;;;;;;21.77;19.80;;;;;20.20;100221.00;;;;2079553;28;20228;-67
2021/05/01 02:40:44;;;;;;;20.97;19.13;;;;;20.20;100219.00;;;;2079708;28;20213;-67
2021/05/01 02:41:44;;;;;;;22.17;20.27;;;;;20.20;100220.00;;;;2079869;28;20218;-68
2021/05/01 02:42:45;;;;;;;24.30;22.20;;;;;20.20;100216.00;;;;2079455;28;20214;-67
2021/05/01 02:43:45;;;;;;;22.00;20.10;;;;;20.20;100216.00;;;;2062942;28;20764;-67
2021/05/01 02:44:46;;;;;;;21.80;19.90;;;;;20.20;100219.00;;;;2062829;28;20211;-64
2021/05/01 02:45:46;;;;;;;21.70;19.80;;;;;20.10;100226.00;;;;2054840;28;20216;-68
2021/05/01 02:46:47;;;;;;;23.10;21.00;;;;;20.20;100221.00;;;;2055123;28;20695;-67
2021/05/01 02:47:47;;;;;;;21.80;19.87;;;;;20.10;100214.00;;;;2079415;28;20696;-68
2021/05/01 02:48:48;;;;;;;23.17;21.20;;;;;20.20;100221.00;;;;2063030;28;20235;-67
2021/05/01 02:49:48;;;;;;;21.83;19.93;;;;;20.10;100219.00;;;;2055086;28;20278;-68
2021/05/01 02:50:48;;;;;;;21.93;20.03;;;;;20.10;100213.00;;;;2071203;28;20724;-68
2021/05/01 02:51:49;;;;;;;22.40;20.43;;;;;20.10;100213.00;;;;2076690;28;20256;-67
2021/05/01 02:52:49;;;;;;;22.70;20.80;;;;;20.10;100211.00;;;;2073905;28;20261;-68
2021/05/01 02:53:50;;;;;;;22.13;20.13;;;;;20.10;100213.00;;;;2079483;28;20222;-67
2021/05/01 02:54:50;;;;;;;22.47;20.47;;;;;20.10;100212.00;;;;2070177;28;20218;-67
2021/05/01 02:55:50;;;;;;;22.13;20.23;;;;;20.10;100216.00;;;;2062080;28;20223;-67
2021/05/01 02:56:51;;;;;;;20.70;18.90;;;;;20.10;100207.00;;;;2070507;28;20281;-68
2021/05/01 02:57:51;;;;;;;22.30;20.40;;;;;20.10;100214.00;;;;2070549;28;20226;-67
2021/05/01 02:58:52;;;;;;;20.77;19.07;;;;;20.10;100215.00;;;;2078100;28;20253;-67
2021/05/01 02:59:52;;;;;;;21.90;20.00;;;;;20.10;100216.00;;;;2079707;28;20214;-67
2021/05/01 03:00:53;;;;;;;20.90;18.97;;;;;20.10;100211.00;;;;2080190;28;20261;-68
2021/05/01 03:01:54;;;;;;;22.63;20.65;;;;;20.10;100209.00;;;;2080856;28;20220;-67
2021/05/01 03:02:54;;;;;;;21.73;19.90;;;;;20.10;100205.00;;;;2080759;28;20591;-67
2021/05/01 03:03:55;;;;;;;21.47;19.57;;;;;20.10;100207.00;;;;2072086;28;20554;-67
2021/05/01 03:04:55;;;;;;;21.70;19.80;;;;;20.10;100199.00;;;;2072135;28;20271;-67
2021/05/01 03:05:55;;;;;;;22.20;20.20;;;;;20.10;100198.00;;;;2071859;28;20214;-67
2021/05/01 03:06:56;;;;;;;21.80;19.73;;;;;20.10;100200.00;;;;2071839;28;20211;-68
2021/05/01 03:07:56;;;;;;;21.60;19.80;;;;;20.10;100203.00;;;;2080708;28;20240;-67
2021/05/01 03:08:57;;;;;;;20.70;18.80;;;;;20.10;100208.00;;;;2080731;28;20694;-67
2021/05/01 03:09:57;;;;;;;20.80;19.07;;;;;20.10;100202.00;;;;2080907;28;20304;-67
2021/05/01 03:10:57;;;;;;;21.20;19.27;;;;;20.10;100202.00;;;;2080972;28;20214;-67
2021/05/01 03:11:58;;;;;;;21.10;19.30;;;;;20.10;100203.00;;;;2080249;28;20323;-67
2021/05/01 03:12:58;;;;;;;20.80;19.00;;;;;20.10;100199.00;;;;2072570;28;20225;-67
2021/05/01 03:13:58;;;;;;;20.00;18.20;;;;;20.10;100195.00;;;;2080560;28;20210;-67
2021/05/01 03:14:59;;;;;;;20.60;18.83;;;;;20.10;100203.00;;;;2080778;28;20224;-67
2021/05/01 03:15:59;;;;;;;20.47;18.67;;;;;20.10;100193.00;;;;2080575;28;20214;-67
2021/05/01 03:16:59;;;;;;;20.27;18.37;;;;;20.10;100194.00;;;;2080746;28;20296;-67
2021/05/01 03:18:00;;;;;;;21.03;19.23;;;;;20.10;100185.00;;;;2080574;28;20214;-67
2021/05/01 03:19:00;;;;;;;21.47;19.57;;;;;20.10;100193.00;;;;2080484;28;20233;-67
2021/05/01 03:20:01;;;;;;;20.23;18.53;;;;;20.10;100196.00;;;;2081473;28;20268;-67
2021/05/01 03:21:01;;;;;;;21.57;19.67;;;;;20.00;100195.00;;;;2080444;28;20209;-68
2021/05/01 03:22:02;;;;;;;20.27;18.47;;;;;20.00;100190.00;;;;2080399;28;20461;-67
2021/05/01 03:23:06;;;;;;;20.90;19.07;;;;;20.00;100191.00;;;;2064241;28;20215;-67
2021/05/01 03:24:07;;;;;;;21.58;19.65;;;;;20.10;100194.00;;;;2064478;28;20220;-67
2021/05/01 03:25:08;;;;;;;21.10;19.37;;;;;20.10;100182.00;;;;2075685;28;20214;-67
2021/05/01 03:26:09;;;;;;;21.85;20.00;;;;;20.10;100182.00;;;;2079906;28;20465;-67
2021/05/01 03:27:09;;;;;;;21.03;19.20;;;;;20.00;100189.00;;;;2072418;28;20250;-67
2021/05/01 03:28:10;;;;;;;20.97;19.17;;;;;20.00;100199.00;;;;2080740;28;20280;-67
2021/05/01 03:29:10;;;;;;;21.77;19.87;;;;;20.00;100190.00;;;;2080995;28;20565;-67
2021/05/01 03:30:15;;;;;;;20.83;18.97;;;;;20.00;100163.00;;;;2081294;28;20233;-67
2021/05/01 03:31:15;;;;;;;22.05;20.05;;;;;20.00;100195.00;;;;2079989;28;20222;-68
2021/05/01 03:32:15;;;;;;;22.03;20.07;;;;;20.00;100187.00;;;;2079735;28;20355;-67
2021/05/01 03:33:16;;;;;;;22.57;20.60;;;;;20.00;100193.00;;;;2079634;28;20301;-68
2021/05/01 03:34:16;;;;;;;21.23;19.37;;;;;20.00;100196.00;;;;2080211;28;20213;-67
2021/05/01 03:35:17;;;;;;;22.00;20.00;;;;;20.00;100186.00;;;;2080350;28;20213;-68
2021/05/01 03:36:17;;;;;;;22.80;20.70;;;;;20.00;100187.00;;;;2080290;28;20234;-68
2021/05/01 03:37:17;;;;;;;22.03;20.03;;;;;20.00;100200.00;;;;2080388;28;20259;-67
2021/05/01 03:38:17;;;;;;;20.80;19.00;;;;;20.00;100192.00;;;;2081163;28;20206;-67
2021/05/01 03:39:18;;;;;;;22.47;20.47;;;;;20.00;100192.00;;;;2081270;28;20213;-68
2021/05/01 03:40:18;;;;;;;21.77;19.90;;;;;20.00;100198.00;;;;2080308;28;20245;-67
2021/05/01 03:41:18;;;;;;;22.63;20.43;;;;;20.00;100197.00;;;;2080501;28;20834;-67
2021/05/01 03:42:19;;;;;;;22.37;20.33;;;;;20.00;100205.00;;;;2081336;28;20216;-68
2021/05/01 03:43:20;;;;;;;22.93;20.93;;;;;20.00;100200.00;;;;2081109;28;20206;-67
2021/05/01 03:44:21;;;;;;;22.93;20.93;;;;;20.00;100196.00;;;;2072215;28;20629;-67
2021/05/01 03:45:21;;;;;;;22.58;20.48;;;;;20.00;100198.00;;;;2064126;28;20642;-67
2021/05/01 03:46:22;;;;;;;21.53;19.63;;;;;20.00;100202.00;;;;2080439;28;20206;-67
2021/05/01 03:47:22;;;;;;;23.10;21.10;;;;;20.00;100199.00;;;;2080964;28;20210;-67
2021/05/01 03:48:22;;;;;;;22.33;20.33;;;;;20.00;100200.00;;;;2080406;28;20206;-67
2021/05/01 03:49:23;;;;;;;23.20;21.20;;;;;20.00;100192.00;;;;2071742;28;20712;-67
2021/05/01 03:50:23;;;;;;;23.43;21.23;;;;;20.00;100190.00;;;;2071214;28;20219;-67
2021/05/01 03:51:23;;;;;;;23.83;21.63;;;;;20.00;100203.00;;;;2072317;28;20600;-68
2021/05/01 03:52:24;;;;;;;22.93;20.93;;;;;20.00;100186.00;;;;2078746;28;20644;-67
2021/05/01 03:53:24;;;;;;;23.97;21.87;;;;;20.00;100203.00;;;;2072144;28;20702;-67
2021/05/01 03:54:24;;;;;;;23.97;21.70;;;;;20.00;100203.00;;;;2072229;28;20305;-67
2021/05/01 03:55:25;;;;;;;24.90;22.60;;;;;20.00;100199.00;;;;2080744;28;20210;-67
2021/05/01 03:56:25;;;;;;;24.03;21.83;;;;;20.00;100189.00;;;;2072251;28;20322;-68
2021/05/01 03:57:26;;;;;;;23.33;21.23;;;;;20.00;100198.00;;;;2072240;28;20238;-67
2021/05/01 03:58:26;;;;;;;24.83;22.60;;;;;20.00;100191.00;;;;2080359;28;20680;-68
2021/05/01 03:59:26;;;;;;;25.20;23.00;;;;;20.00;100189.00;;;;2071401;28;20706;-68
2021/05/01 04:00:27;;;;;;;24.60;22.27;;;;;20.00;100194.00;;;;2072332;28;20659;-68
2021/05/01 04:01:27;;;;;;;23.77;21.60;;;;;20.00;100198.00;;;;2077519;28;20214;-67
2021/05/01 04:02:27;;;;;;;24.63;22.40;;;;;20.00;100198.00;;;;2080447;28;20256;-67
2021/05/01 04:03:28;;;;;;;24.50;22.27;;;;;19.90;100195.00;;;;2072175;28;20362;-67
2021/05/01 04:04:28;;;;;;;25.93;23.40;;;;;20.00;100201.00;;;;2072252;28;20256;-67
2021/05/01 04:05:28;;;;;;;25.60;23.20;;;;;20.00;100199.00;;;;2080180;28;20202;-67
2021/05/01 04:06:29;;;;;;;25.87;23.37;;;;;20.00;100193.00;;;;2081010;28;20564;-67
2021/05/01 04:07:29;;;;;;;26.33;23.83;;;;;20.00;100194.00;;;;2080799;28;20218;-67
2021/05/01 04:08:29;;;;;;;24.33;22.13;;;;;19.90;100199.00;;;;2080765;28;20206;-68
2021/05/01 04:09:30;;;;;;;26.30;23.70;;;;;19.90;100204.00;;;;2080123;28;20237;-67
2021/05/01 04:10:30;;;;;;;27.03;24.43;;;;;19.90;100200.00;;;;2071836;28;20222;-67
2021/05/01 04:11:31;;;;;;;26.97;24.57;;;;;19.90;100199.00;;;;2079322;28;20268;-68
2021/05/01 04:12:31;;;;;;;25.90;23.50;;;;;19.90;100202.00;;;;2080932;28;20229;-67
2021/05/01 04:13:32;;;;;;;26.50;24.00;;;;;19.90;100203.00;;;;2080238;28;20448;-67
2021/05/01 04:14:32;;;;;;;25.13;22.73;;;;;19.90;100199.00;;;;2080007;28;20265;-67
2021/05/01 04:15:32;;;;;;;24.93;22.53;;;;;19.90;100197.00;;;;2080812;28;20222;-67
2021/05/01 04:16:33;;;;;;;27.20;24.77;;;;;19.90;100200.00;;;;2080916;28;20592;-67
2021/05/01 04:17:33;;;;;;;24.80;22.60;;;;;19.90;100201.00;;;;2080256;28;20221;-67
2021/05/01 04:18:34;;;;;;;28.77;26.03;;;;;19.90;100200.00;;;;2071734;28;20296;-67
2021/05/01 04:19:34;;;;;;;27.07;24.47;;;;;19.90;100202.00;;;;2079341;28;20225;-67
2021/05/01 04:20:34;;;;;;;25.73;23.43;;;;;19.90;100203.00;;;;2079897;28;20218;-67
2021/05/01 04:21:34;;;;;;;27.73;25.03;;;;;19.90;100207.00;;;;2078812;28;20210;-67
2021/05/01 04:22:35;;;;;;;28.73;25.83;;;;;19.90;100206.00;;;;2079207;28;20241;-67
2021/05/01 04:23:35;;;;;;;28.60;25.90;;;;;19.90;100204.00;;;;2079500;28;20280;-68
2021/05/01 04:24:35;;;;;;;27.53;24.93;;;;;19.90;100202.00;;;;2063222;28;20216;-67
2021/05/01 04:25:36;;;;;;;28.57;25.77;;;;;19.90;100206.00;;;;2057714;28;20767;-67
2021/05/01 04:26:36;;;;;;;27.90;25.30;;;;;19.90;100206.00;;;;2080297;28;20218;-67
2021/05/01 04:27:37;;;;;;;28.33;25.63;;;;;19.90;100206.00;;;;2080340;28;20214;-68
2021/05/01 04:28:37;;;;;;;25.87;23.37;;;;;19.90;100201.00;;;;2079696;28;20213;-67
2021/05/01 04:29:37;;;;;;;27.27;24.70;;;;;19.90;100208.00;;;;2063166;28;20254;-68
2021/05/01 04:30:38;;;;;;;27.40;24.80;;;;;19.90;100207.00;;;;2071374;28;20210;-68
2021/05/01 04:31:38;;;;;;;28.13;25.33;;;;;19.90;100214.00;;;;2071258;28;20210;-67
2021/05/01 04:32:38;;;;;;;27.53;24.90;;;;;19.90;100211.00;;;;2071379;28;20300;-67
2021/05/01 04:33:39;;;;;;;28.40;25.70;;;;;19.90;100209.00;;;;2071624;28;20211;-68
2021/05/01 04:34:39;;;;;;;26.50;24.00;;;;;19.90;100214.00;;;;2079609;28;20217;-68
2021/05/01 04:35:40;;;;;;;27.90;25.20;;;;;19.90;100213.00;;;;2079331;28;20225;-67
2021/05/01 04:36:40;;;;;;;26.67;24.17;;;;;19.90;100216.00;;;;2079451;28;20601;-68
2021/05/01 04:37:40;;;;;;;27.30;24.67;;;;;19.90;100225.00;;;;2078678;28;20665;-67
2021/05/01 04:38:41;;;;;;;27.00;24.50;;;;;19.90;100223.00;;;;2070624;28;20218;-68
2021/05/01 04:39:41;;;;;;;25.50;23.20;;;;;19.90;100223.00;;;;2059302;28;20336;-67
2021/05/01 04:40:42;;;;;;;27.53;25.03;;;;;19.90;100227.00;;;;2066304;28;20214;-67
2021/05/01 04:41:42;;;;;;;28.20;25.70;;;;;19.90;100214.00;;;;2071450;28;20230;-66
2021/05/01 04:42:47;;;;;;;27.83;25.23;;;;;19.90;100231.00;;;;2071358;28;20725;-67
2021/05/01 04:43:48;;;;;;;27.30;24.70;;;;;19.90;100237.00;;;;2070372;28;20226;-68
2021/05/01 04:44:48;;;;;;;27.30;24.60;;;;;19.90;100228.00;;;;2079475;28;20268;-67
2021/05/01 04:45:49;;;;;;;27.30;24.77;;;;;19.90;100223.00;;;;2079189;28;20283;-67
2021/05/01 04:46:50;;;;;;;26.53;24.03;;;;;19.90;100226.00;;;;2079502;28;20211;-67
2021/05/01 04:47:51;;;;;;;27.92;25.25;;;;;19.90;100228.00;;;;2071493;28;20218;-68
2021/05/01 04:48:52;;;;;;;27.20;24.77;;;;;19.80;100237.00;;;;2079553;28;20218;-67
2021/05/01 04:49:52;;;;;;;26.97;24.47;;;;;19.80;100238.00;;;;2079929;28;20287;-67
2021/05/01 04:50:53;;;;;;;26.00;23.60;;;;;19.80;100236.00;;;;2071269;28;20219;-67
2021/05/01 04:51:53;;;;;;;26.50;24.00;;;;;19.80;100241.00;;;;2062851;28;20224;-67
2021/05/01 04:52:53;;;;;;;27.40;24.80;;;;;19.90;100242.00;;;;2079466;28;20252;-68
2021/05/01 04:53:54;;;;;;;26.67;24.07;;;;;19.90;100239.00;;;;2079944;28;20256;-67